createdAt,value
2022-10-28T00:03:57.697Z,82.0
2022-10-28T00:08:57.679Z,82.0
2022-10-28T00:13:57.691Z,82.0
2022-10-28T00:18:57.690Z,82.0
2022-10-28T00:23:57.695Z,82.0
2022-10-28T00:28:57.698Z,82.5
2022-10-28T00:33:57.702Z,83.0
2022-10-28T00:38:57.714Z,83.0
2022-10-28T00:43:57.709Z,83.0
2022-10-28T00:48:57.704Z,83.5
2022-10-28T00:53:57.707Z,83.5
2022-10-28T00:58:57.709Z,83.5
2022-10-28T01:03:57.723Z,83.5
2022-10-28T01:09:00.083Z,84.0
2022-10-28T01:13:57.712Z,84.0
2022-10-28T01:18:57.724Z,84.0
2022-10-28T01:23:57.717Z,84.0
2022-10-28T01:28:57.724Z,84.5
2022-10-28T01:33:57.727Z,85.0
2022-10-28T01:38:57.728Z,85.0
2022-10-28T01:43:57.727Z,85.0
2022-10-28T01:48:57.742Z,85.5
2022-10-28T01:53:57.733Z,85.0
2022-10-28T01:58:57.743Z,85.5
2022-10-28T02:03:57.744Z,85.5
2022-10-28T02:08:57.741Z,85.5
2022-10-28T02:13:57.761Z,85.5
2022-10-28T02:18:57.740Z,86.0
2022-10-28T02:23:57.748Z,86.0
2022-10-28T02:28:57.756Z,85.5
2022-10-28T02:33:57.756Z,86.0
2022-10-28T02:38:57.755Z,86.0
2022-10-28T02:43:57.758Z,86.0
2022-10-28T02:48:57.763Z,86.0
2022-10-28T02:53:57.769Z,86.0
2022-10-28T02:58:57.785Z,86.0
2022-10-28T03:03:57.784Z,86.0
2022-10-28T03:08:57.775Z,86.5
2022-10-28T03:13:57.772Z,86.5
2022-10-28T03:18:57.826Z,86.5
2022-10-28T03:23:57.779Z,86.5
2022-10-28T03:28:57.783Z,86.5
2022-10-28T03:33:57.794Z,86.5
2022-10-28T03:38:57.794Z,86.5
2022-10-28T03:48:57.795Z,86.5
2022-10-28T03:53:57.795Z,87.0
2022-10-28T03:58:57.809Z,87.0
2022-10-28T04:03:57.798Z,86.5
2022-10-28T04:08:57.812Z,86.5
2022-10-28T04:13:57.813Z,87.0
2022-10-28T04:18:57.806Z,87.0
2022-10-28T04:23:57.816Z,87.0
2022-10-28T04:28:57.816Z,87.0
2022-10-28T04:33:57.818Z,87.5
2022-10-28T04:38:57.816Z,87.5
2022-10-28T04:43:57.826Z,88.0
2022-10-28T04:48:57.829Z,87.5
2022-10-28T04:53:57.840Z,87.5
2022-10-28T04:58:57.831Z,87.5
2022-10-28T05:03:57.848Z,87.5
2022-10-28T05:08:57.839Z,87.5
2022-10-28T05:13:57.836Z,87.5
2022-10-28T05:18:57.860Z,87.0
2022-10-28T05:23:57.853Z,87.0
2022-10-28T05:28:57.850Z,87.0
2022-10-28T05:33:57.861Z,87.0
2022-10-28T05:43:57.866Z,87.0
2022-10-28T05:53:57.866Z,87.0
2022-10-28T05:58:57.870Z,87.0
2022-10-28T06:03:57.904Z,87.0
2022-10-28T06:08:57.867Z,87.0
2022-10-28T06:13:56.357Z,87.0
2022-10-28T06:18:56.358Z,87.0
2022-10-28T06:23:56.368Z,87.0
2022-10-28T06:28:56.367Z,87.0
2022-10-28T06:33:56.381Z,87.0
2022-10-28T06:38:56.376Z,87.0
2022-10-28T06:43:56.392Z,87.0
2022-10-28T06:48:57.908Z,87.0
2022-10-28T06:53:57.908Z,87.0
2022-10-28T06:58:57.924Z,87.0
2022-10-28T07:03:57.964Z,87.0
2022-10-28T07:08:57.934Z,87.0
2022-10-28T07:13:57.950Z,87.0
2022-10-28T07:18:57.954Z,86.5
2022-10-28T07:23:57.959Z,86.5
2022-10-28T07:28:57.968Z,86.0
2022-10-28T07:33:57.981Z,86.0
2022-10-28T07:38:57.985Z,85.5
2022-10-28T07:43:57.983Z,85.5
2022-10-28T07:48:57.985Z,85.5
2022-10-28T07:53:57.988Z,85.5
2022-10-28T07:58:57.986Z,85.0
2022-10-28T08:03:57.983Z,85.0
2022-10-28T08:08:57.980Z,85.0
2022-10-28T08:13:57.973Z,84.5
2022-10-28T08:18:57.972Z,84.0
2022-10-28T08:23:57.974Z,83.5
2022-10-28T08:28:57.986Z,82.5
2022-10-28T08:33:57.982Z,82.0
2022-10-28T08:38:57.981Z,81.5
2022-10-28T08:43:58.200Z,81.0
2022-10-28T08:48:58.001Z,80.5
2022-10-28T08:53:58.008Z,80.5
2022-10-28T08:58:58.011Z,79.5
2022-10-28T09:03:58.006Z,79.0
2022-10-28T09:08:58.024Z,78.0
2022-10-28T09:13:58.022Z,77.5
2022-10-28T09:18:58.028Z,77.0
2022-10-28T09:23:58.030Z,76.5
2022-10-28T09:28:58.154Z,75.5
2022-10-28T09:33:58.034Z,73.5
2022-10-28T09:38:58.041Z,73.5
2022-10-28T09:43:58.050Z,73.0
2022-10-28T09:48:58.052Z,72.5
2022-10-28T09:53:58.057Z,72.0
2022-10-28T09:58:58.060Z,71.0
2022-10-28T10:03:58.081Z,70.0
2022-10-28T10:08:58.070Z,69.0
2022-10-28T10:13:58.074Z,69.0
2022-10-28T10:18:58.076Z,68.5
2022-10-28T10:23:58.078Z,68.5
2022-10-28T10:28:58.083Z,68.0
2022-10-28T10:33:58.093Z,67.5
2022-10-28T10:38:58.098Z,67.0
2022-10-28T10:43:58.142Z,67.0
2022-10-28T10:48:58.097Z,66.0
2022-10-28T10:53:58.100Z,66.0
2022-10-28T10:58:58.111Z,65.5
2022-10-28T11:08:58.303Z,64.0
2022-10-28T11:13:58.122Z,64.5
2022-10-28T11:18:58.148Z,64.0
2022-10-28T11:23:58.134Z,63.5
2022-10-28T11:28:58.132Z,62.5
2022-10-28T11:33:58.150Z,62.0
2022-10-28T11:38:58.185Z,61.5
2022-10-28T11:44:02.269Z,60.0
2022-10-28T11:48:58.145Z,60.0
2022-10-28T11:53:58.079Z,59.0
2022-10-28T11:58:58.072Z,58.5
2022-10-28T12:03:58.062Z,58.5
2022-10-28T12:08:58.103Z,58.5
2022-10-28T12:13:58.206Z,58.5
2022-10-28T12:18:58.087Z,58.5
2022-10-28T12:23:58.072Z,58.0
2022-10-28T12:28:58.175Z,58.0
2022-10-28T12:33:58.167Z,58.0
2022-10-28T12:38:58.173Z,57.5
2022-10-28T12:43:58.089Z,57.5
2022-10-28T12:48:58.088Z,57.0
2022-10-28T12:53:58.090Z,56.5
2022-10-28T12:58:58.144Z,56.5
2022-10-28T13:03:58.197Z,56.5
2022-10-28T13:08:58.203Z,56.0
2022-10-28T13:13:58.170Z,56.5
2022-10-28T13:18:58.104Z,56.0
2022-10-28T13:23:58.200Z,56.5
2022-10-28T13:28:58.208Z,56.5
2022-10-28T13:33:58.213Z,57.0
2022-10-28T13:38:58.212Z,57.0
2022-10-28T13:43:58.219Z,57.5
2022-10-28T13:48:58.357Z,58.0
2022-10-28T13:53:58.215Z,58.0
2022-10-28T13:58:58.218Z,58.5
2022-10-28T14:03:58.230Z,58.5
2022-10-28T14:08:58.228Z,58.5
2022-10-28T14:13:58.230Z,58.5
2022-10-28T14:18:58.236Z,59.0
2022-10-28T14:23:58.235Z,59.0
2022-10-28T14:28:58.230Z,59.0
2022-10-28T14:33:58.233Z,59.0
2022-10-28T14:38:58.262Z,59.0
2022-10-28T14:43:58.238Z,59.5
2022-10-28T14:48:58.246Z,59.5
2022-10-28T14:53:58.250Z,59.5
2022-10-28T14:58:58.257Z,60.0
2022-10-28T15:03:58.249Z,60.0
2022-10-28T15:08:58.259Z,60.0
2022-10-28T15:13:58.257Z,60.0
2022-10-28T15:18:58.255Z,60.5
2022-10-28T15:23:58.264Z,60.5
2022-10-28T15:28:58.264Z,61.0
2022-10-28T15:33:58.270Z,61.0
2022-10-28T15:38:58.267Z,61.5
2022-10-28T15:43:58.272Z,62.0
2022-10-28T15:48:58.279Z,62.0
2022-10-28T15:53:58.280Z,62.5
2022-10-28T15:58:58.283Z,63.0
2022-10-28T16:03:58.280Z,63.0
2022-10-28T16:08:58.283Z,63.5
2022-10-28T16:13:58.290Z,64.0
2022-10-28T16:18:58.296Z,64.5
2022-10-28T16:23:58.290Z,65.0
2022-10-28T16:28:58.291Z,65.5
2022-10-28T16:33:58.293Z,66.0
2022-10-28T16:38:58.298Z,66.5
2022-10-28T16:43:58.365Z,66.5
2022-10-28T16:48:58.299Z,67.0
2022-10-28T16:53:58.306Z,67.5
2022-10-28T16:58:58.308Z,67.5
2022-10-28T17:03:58.303Z,68.0
2022-10-28T17:09:02.993Z,68.0
2022-10-28T17:13:58.315Z,68.0
2022-10-28T17:18:58.354Z,68.5
2022-10-28T17:23:58.315Z,68.5
2022-10-28T17:28:58.320Z,68.5
2022-10-28T17:33:58.325Z,69.0
2022-10-28T17:38:58.323Z,69.0
2022-10-28T17:43:58.329Z,69.5
2022-10-28T17:48:58.325Z,70.0
2022-10-28T17:53:58.329Z,70.5
2022-10-28T17:58:58.327Z,71.0
2022-10-28T18:03:58.339Z,71.0
2022-10-28T18:08:58.343Z,71.5
2022-10-28T18:13:58.377Z,72.0
2022-10-28T18:18:58.346Z,72.0
2022-10-28T18:23:58.343Z,72.5
2022-10-28T18:28:58.352Z,72.5
2022-10-28T18:33:58.349Z,73.0
2022-10-28T18:38:58.357Z,73.5
2022-10-28T18:43:58.352Z,73.5
2022-10-28T18:48:58.354Z,73.5
2022-10-28T18:53:58.369Z,73.5
2022-10-28T18:58:58.363Z,74.0
2022-10-28T19:03:58.360Z,74.0
2022-10-28T19:08:58.363Z,74.5
2022-10-28T19:13:58.375Z,75.0
2022-10-28T19:18:58.379Z,75.0
2022-10-28T19:23:58.378Z,75.0
2022-10-28T19:28:58.372Z,75.5
2022-10-28T19:33:58.385Z,75.5
2022-10-28T19:38:58.382Z,76.0
2022-10-28T19:43:58.963Z,76.0
2022-10-28T19:48:58.391Z,76.0
2022-10-28T19:53:58.419Z,76.0
2022-10-28T19:58:58.391Z,76.5
2022-10-28T20:03:58.402Z,77.0
2022-10-28T20:08:58.396Z,77.0
2022-10-28T20:13:58.452Z,77.0
2022-10-28T20:18:58.451Z,77.5
2022-10-28T20:23:58.422Z,77.0
2022-10-28T20:28:58.411Z,77.5
2022-10-28T20:33:58.413Z,77.5
2022-10-28T20:38:58.415Z,77.5
2022-10-28T20:43:58.491Z,78.0
2022-10-28T20:48:58.415Z,78.5
2022-10-28T20:53:58.420Z,78.5
2022-10-28T20:58:58.426Z,78.5
2022-10-28T21:03:58.429Z,79.0
2022-10-28T21:08:58.428Z,79.0
2022-10-28T21:13:58.422Z,79.5
2022-10-28T21:18:58.428Z,79.5
2022-10-28T21:23:58.435Z,80.0
2022-10-28T21:28:58.440Z,80.0
2022-10-28T21:33:59.193Z,80.0
2022-10-28T21:38:58.437Z,80.0
2022-10-28T21:43:58.467Z,80.5
2022-10-28T21:48:58.444Z,81.0
2022-10-28T21:53:58.448Z,81.0
2022-10-28T21:58:58.451Z,81.0
2022-10-28T22:03:58.468Z,80.5
2022-10-28T22:08:58.452Z,80.5
2022-10-28T22:13:58.479Z,81.0
2022-10-28T22:18:58.466Z,81.0
2022-10-28T22:23:58.468Z,81.0
2022-10-28T22:28:58.467Z,81.0
2022-10-28T22:33:58.470Z,81.0
2022-10-28T22:38:58.484Z,81.5
2022-10-28T22:43:58.475Z,82.0
2022-10-28T22:48:58.473Z,82.0
2022-10-28T22:53:58.479Z,82.5
2022-10-28T22:58:58.480Z,82.5
2022-10-28T23:03:58.492Z,83.0
2022-10-28T23:08:58.479Z,83.0
2022-10-28T23:18:58.492Z,84.0
2022-10-28T23:23:58.494Z,84.5
2022-10-28T23:28:58.523Z,84.5
2022-10-28T23:33:58.499Z,84.5
2022-10-28T23:38:58.506Z,84.5
2022-10-28T23:43:58.504Z,84.5
2022-10-28T23:48:58.506Z,84.5
2022-10-28T23:53:58.508Z,84.5
2022-10-28T23:58:58.508Z,84.5
